sensor_id;sensor_type;location;lat;lon;timestamp;P1;durP1;ratioP1;P2;durP2;ratioP2
44850;SDS011;30583;48.714;9.386;2023-04-30T00:00:10;5.53;;;3.42;;
44850;SDS011;30583;48.714;9.386;2023-04-30T00:02:36;5.28;;;3.72;;
44850;SDS011;30583;48.714;9.386;2023-04-30T00:05:02;5.45;;;3.47;;
44850;SDS011;30583;48.714;9.386;2023-04-30T00:07:28;5.57;;;3.70;;
44850;SDS011;30583;48.714;9.386;2023-04-30T00:09:53;5.80;;;3.30;;
44850;SDS011;30583;48.714;9.386;2023-04-30T00:12:19;5.85;;;4.32;;
44850;SDS011;30583;48.714;9.386;2023-04-30T00:14:45;7.78;;;3.90;;
44850;SDS011;30583;48.714;9.386;2023-04-30T00:17:11;5.63;;;3.65;;
44850;SDS011;30583;48.714;9.386;2023-04-30T00:19:36;6.32;;;4.20;;
44850;SDS011;30583;48.714;9.386;2023-04-30T00:22:02;6.60;;;4.82;;
44850;SDS011;30583;48.714;9.386;2023-04-30T00:24:29;7.03;;;4.93;;
44850;SDS011;30583;48.714;9.386;2023-04-30T00:26:55;5.57;;;4.18;;
44850;SDS011;30583;48.714;9.386;2023-04-30T00:29:21;5.45;;;4.00;;
44850;SDS011;30583;48.714;9.386;2023-04-30T00:31:46;6.45;;;4.07;;
44850;SDS011;30583;48.714;9.386;2023-04-30T00:34:12;7.15;;;4.63;;
44850;SDS011;30583;48.714;9.386;2023-04-30T00:36:38;7.05;;;4.55;;
44850;SDS011;30583;48.714;9.386;2023-04-30T00:39:04;5.80;;;3.75;;
44850;SDS011;30583;48.714;9.386;2023-04-30T00:41:30;5.22;;;3.97;;
44850;SDS011;30583;48.714;9.386;2023-04-30T00:43:58;5.47;;;4.05;;
44850;SDS011;30583;48.714;9.386;2023-04-30T00:46:26;5.20;;;3.63;;
44850;SDS011;30583;48.714;9.386;2023-04-30T00:48:51;6.55;;;3.70;;
44850;SDS011;30583;48.714;9.386;2023-04-30T00:51:17;6.03;;;3.70;;
44850;SDS011;30583;48.714;9.386;2023-04-30T00:53:43;5.07;;;3.75;;
44850;SDS011;30583;48.714;9.386;2023-04-30T00:56:08;7.35;;;3.92;;
44850;SDS011;30583;48.714;9.386;2023-04-30T00:58:35;5.15;;;3.65;;
44850;SDS011;30583;48.714;9.386;2023-04-30T01:01:01;6.43;;;3.67;;
44850;SDS011;30583;48.714;9.386;2023-04-30T01:03:28;6.55;;;3.75;;
44850;SDS011;30583;48.714;9.386;2023-04-30T01:05:53;6.38;;;3.97;;
44850;SDS011;30583;48.714;9.386;2023-04-30T01:08:19;6.30;;;3.80;;
44850;SDS011;30583;48.714;9.386;2023-04-30T01:11:06;5.50;;;3.70;;
44850;SDS011;30583;48.714;9.386;2023-04-30T01:14:06;5.65;;;3.90;;
44850;SDS011;30583;48.714;9.386;2023-04-30T01:16:46;7.75;;;4.93;;
44850;SDS011;30583;48.714;9.386;2023-04-30T01:19:26;6.35;;;4.43;;
44850;SDS011;30583;48.714;9.386;2023-04-30T01:21:54;9.05;;;4.78;;
44850;SDS011;30583;48.714;9.386;2023-04-30T01:27:17;6.88;;;4.85;;
44850;SDS011;30583;48.714;9.386;2023-04-30T01:29:56;7.53;;;4.38;;
44850;SDS011;30583;48.714;9.386;2023-04-30T01:32:23;8.30;;;5.30;;
44850;SDS011;30583;48.714;9.386;2023-04-30T01:34:48;8.02;;;4.80;;
44850;SDS011;30583;48.714;9.386;2023-04-30T01:37:21;8.00;;;4.97;;
44850;SDS011;30583;48.714;9.386;2023-04-30T01:40:07;7.28;;;4.85;;
44850;SDS011;30583;48.714;9.386;2023-04-30T01:43:00;8.25;;;4.93;;
44850;SDS011;30583;48.714;9.386;2023-04-30T01:45:32;8.68;;;5.15;;
44850;SDS011;30583;48.714;9.386;2023-04-30T01:50:55;7.35;;;5.05;;
44850;SDS011;30583;48.714;9.386;2023-04-30T01:53:34;9.63;;;5.20;;
44850;SDS011;30583;48.714;9.386;2023-04-30T01:56:05;7.40;;;5.30;;
44850;SDS011;30583;48.714;9.386;2023-04-30T01:58:36;7.13;;;5.40;;
44850;SDS011;30583;48.714;9.386;2023-04-30T02:01:03;13.73;;;6.38;;
44850;SDS011;30583;48.714;9.386;2023-04-30T02:03:29;9.25;;;5.75;;
44850;SDS011;30583;48.714;9.386;2023-04-30T02:05:56;7.88;;;5.93;;
44850;SDS011;30583;48.714;9.386;2023-04-30T02:08:23;8.82;;;5.70;;
44850;SDS011;30583;48.714;9.386;2023-04-30T02:10:48;8.82;;;5.93;;
44850;SDS011;30583;48.714;9.386;2023-04-30T02:13:14;7.80;;;5.68;;
44850;SDS011;30583;48.714;9.386;2023-04-30T02:15:40;9.32;;;5.75;;
44850;SDS011;30583;48.714;9.386;2023-04-30T02:18:05;8.02;;;5.72;;
44850;SDS011;30583;48.714;9.386;2023-04-30T02:20:31;8.02;;;5.57;;
44850;SDS011;30583;48.714;9.386;2023-04-30T02:22:56;8.93;;;6.20;;
44850;SDS011;30583;48.714;9.386;2023-04-30T02:25:22;8.55;;;6.32;;
44850;SDS011;30583;48.714;9.386;2023-04-30T02:27:47;8.23;;;5.82;;
44850;SDS011;30583;48.714;9.386;2023-04-30T02:30:14;8.52;;;5.70;;
44850;SDS011;30583;48.714;9.386;2023-04-30T02:32:40;7.70;;;5.63;;
44850;SDS011;30583;48.714;9.386;2023-04-30T02:35:05;6.53;;;5.28;;
44850;SDS011;30583;48.714;9.386;2023-04-30T02:37:31;8.00;;;5.85;;
44850;SDS011;30583;48.714;9.386;2023-04-30T02:39:57;8.45;;;6.00;;
44850;SDS011;30583;48.714;9.386;2023-04-30T02:42:22;10.18;;;6.20;;
44850;SDS011;30583;48.714;9.386;2023-04-30T02:44:48;8.82;;;5.80;;
44850;SDS011;30583;48.714;9.386;2023-04-30T02:47:13;8.00;;;5.63;;
44850;SDS011;30583;48.714;9.386;2023-04-30T02:49:39;8.77;;;6.50;;
44850;SDS011;30583;48.714;9.386;2023-04-30T02:52:05;7.22;;;5.90;;
44850;SDS011;30583;48.714;9.386;2023-04-30T02:54:33;9.05;;;6.35;;
44850;SDS011;30583;48.714;9.386;2023-04-30T02:56:59;9.13;;;6.20;;
44850;SDS011;30583;48.714;9.386;2023-04-30T02:59:24;9.43;;;6.50;;
44850;SDS011;30583;48.714;9.386;2023-04-30T03:01:51;8.98;;;6.15;;
44850;SDS011;30583;48.714;9.386;2023-04-30T03:04:16;9.02;;;6.22;;
44850;SDS011;30583;48.714;9.386;2023-04-30T03:06:42;8.20;;;5.47;;
44850;SDS011;30583;48.714;9.386;2023-04-30T03:09:07;8.10;;;5.53;;
44850;SDS011;30583;48.714;9.386;2023-04-30T03:11:33;7.10;;;5.28;;
44850;SDS011;30583;48.714;9.386;2023-04-30T03:14:01;9.18;;;6.00;;
44850;SDS011;30583;48.714;9.386;2023-04-30T03:16:27;12.70;;;6.45;;
44850;SDS011;30583;48.714;9.386;2023-04-30T03:18:54;8.13;;;6.47;;
44850;SDS011;30583;48.714;9.386;2023-04-30T03:21:20;9.27;;;6.22;;
44850;SDS011;30583;48.714;9.386;2023-04-30T03:23:46;7.70;;;5.35;;
44850;SDS011;30583;48.714;9.386;2023-04-30T03:26:11;8.85;;;5.57;;
44850;SDS011;30583;48.714;9.386;2023-04-30T03:28:37;7.65;;;5.70;;
44850;SDS011;30583;48.714;9.386;2023-04-30T03:31:02;8.68;;;5.68;;
44850;SDS011;30583;48.714;9.386;2023-04-30T03:33:29;9.93;;;5.50;;
44850;SDS011;30583;48.714;9.386;2023-04-30T03:35:56;9.02;;;5.13;;
44850;SDS011;30583;48.714;9.386;2023-04-30T03:38:21;19.92;;;14.50;;
44850;SDS011;30583;48.714;9.386;2023-04-30T03:40:47;9.48;;;7.05;;
44850;SDS011;30583;48.714;9.386;2023-04-30T03:43:13;7.68;;;5.57;;
44850;SDS011;30583;48.714;9.386;2023-04-30T03:45:38;8.88;;;5.72;;
44850;SDS011;30583;48.714;9.386;2023-04-30T03:48:04;8.55;;;6.18;;
44850;SDS011;30583;48.714;9.386;2023-04-30T03:50:29;7.72;;;5.60;;
44850;SDS011;30583;48.714;9.386;2023-04-30T03:52:55;8.50;;;6.38;;
44850;SDS011;30583;48.714;9.386;2023-04-30T03:55:20;8.10;;;6.13;;
44850;SDS011;30583;48.714;9.386;2023-04-30T03:57:46;8.73;;;5.78;;
44850;SDS011;30583;48.714;9.386;2023-04-30T04:00:12;7.82;;;6.10;;
44850;SDS011;30583;48.714;9.386;2023-04-30T04:02:38;9.00;;;6.00;;
44850;SDS011;30583;48.714;9.386;2023-04-30T04:05:04;7.47;;;5.85;;
44850;SDS011;30583;48.714;9.386;2023-04-30T04:07:29;8.25;;;6.45;;
44850;SDS011;30583;48.714;9.386;2023-04-30T04:09:55;9.60;;;6.18;;
44850;SDS011;30583;48.714;9.386;2023-04-30T04:12:21;10.85;;;6.25;;
44850;SDS011;30583;48.714;9.386;2023-04-30T04:14:47;8.73;;;6.07;;
44850;SDS011;30583;48.714;9.386;2023-04-30T04:17:13;7.50;;;5.47;;
44850;SDS011;30583;48.714;9.386;2023-04-30T04:19:38;9.48;;;6.68;;
44850;SDS011;30583;48.714;9.386;2023-04-30T04:22:04;10.13;;;6.32;;
44850;SDS011;30583;48.714;9.386;2023-04-30T04:24:30;7.25;;;5.70;;
44850;SDS011;30583;48.714;9.386;2023-04-30T04:26:56;8.15;;;5.78;;
44850;SDS011;30583;48.714;9.386;2023-04-30T04:29:23;8.80;;;6.30;;
44850;SDS011;30583;48.714;9.386;2023-04-30T04:31:49;9.38;;;7.00;;
44850;SDS011;30583;48.714;9.386;2023-04-30T04:34:15;8.50;;;6.30;;
44850;SDS011;30583;48.714;9.386;2023-04-30T04:36:41;8.80;;;6.85;;
44850;SDS011;30583;48.714;9.386;2023-04-30T04:39:07;9.95;;;6.70;;
44850;SDS011;30583;48.714;9.386;2023-04-30T04:41:32;10.10;;;6.72;;
44850;SDS011;30583;48.714;9.386;2023-04-30T04:44:01;12.15;;;7.72;;
44850;SDS011;30583;48.714;9.386;2023-04-30T04:46:27;9.23;;;7.30;;
44850;SDS011;30583;48.714;9.386;2023-04-30T04:48:54;9.40;;;6.97;;
44850;SDS011;30583;48.714;9.386;2023-04-30T04:51:19;10.98;;;8.07;;
44850;SDS011;30583;48.714;9.386;2023-04-30T04:53:45;10.77;;;8.05;;
44850;SDS011;30583;48.714;9.386;2023-04-30T04:56:11;12.30;;;8.70;;
44850;SDS011;30583;48.714;9.386;2023-04-30T04:58:36;10.35;;;8.00;;
44850;SDS011;30583;48.714;9.386;2023-04-30T05:01:02;12.25;;;8.68;;
44850;SDS011;30583;48.714;9.386;2023-04-30T05:03:29;11.23;;;7.60;;
44850;SDS011;30583;48.714;9.386;2023-04-30T05:05:56;10.73;;;8.05;;
44850;SDS011;30583;48.714;9.386;2023-04-30T05:08:22;12.23;;;7.60;;
44850;SDS011;30583;48.714;9.386;2023-04-30T05:10:48;9.10;;;7.80;;
44850;SDS011;30583;48.714;9.386;2023-04-30T05:13:13;11.68;;;8.20;;
44850;SDS011;30583;48.714;9.386;2023-04-30T05:15:39;11.13;;;8.15;;
44850;SDS011;30583;48.714;9.386;2023-04-30T05:18:04;11.45;;;8.38;;
44850;SDS011;30583;48.714;9.386;2023-04-30T05:20:30;10.38;;;7.63;;
44850;SDS011;30583;48.714;9.386;2023-04-30T05:22:55;10.13;;;7.32;;
44850;SDS011;30583;48.714;9.386;2023-04-30T05:25:21;10.65;;;7.95;;
44850;SDS011;30583;48.714;9.386;2023-04-30T05:27:47;9.90;;;7.18;;
44850;SDS011;30583;48.714;9.386;2023-04-30T05:30:12;11.05;;;8.18;;
44850;SDS011;30583;48.714;9.386;2023-04-30T05:32:39;10.70;;;8.35;;
44850;SDS011;30583;48.714;9.386;2023-04-30T05:35:05;10.60;;;8.25;;
44850;SDS011;30583;48.714;9.386;2023-04-30T05:37:32;11.75;;;8.13;;
44850;SDS011;30583;48.714;9.386;2023-04-30T05:39:58;12.27;;;7.47;;
44850;SDS011;30583;48.714;9.386;2023-04-30T05:42:24;10.02;;;7.32;;
44850;SDS011;30583;48.714;9.386;2023-04-30T05:44:49;10.18;;;8.05;;
44850;SDS011;30583;48.714;9.386;2023-04-30T05:47:15;10.73;;;8.15;;
44850;SDS011;30583;48.714;9.386;2023-04-30T05:49:40;9.88;;;7.72;;
44850;SDS011;30583;48.714;9.386;2023-04-30T05:52:06;11.38;;;8.48;;
44850;SDS011;30583;48.714;9.386;2023-04-30T05:54:32;11.52;;;8.25;;
44850;SDS011;30583;48.714;9.386;2023-04-30T05:56:57;10.20;;;8.13;;
44850;SDS011;30583;48.714;9.386;2023-04-30T05:59:23;13.10;;;8.00;;
44850;SDS011;30583;48.714;9.386;2023-04-30T06:01:49;11.35;;;7.97;;
44850;SDS011;30583;48.714;9.386;2023-04-30T06:04:15;10.13;;;7.93;;
44850;SDS011;30583;48.714;9.386;2023-04-30T06:06:41;11.48;;;7.82;;
44850;SDS011;30583;48.714;9.386;2023-04-30T06:09:07;10.35;;;7.57;;
44850;SDS011;30583;48.714;9.386;2023-04-30T06:11:32;11.00;;;7.63;;
44850;SDS011;30583;48.714;9.386;2023-04-30T06:13:58;10.65;;;7.90;;
44850;SDS011;30583;48.714;9.386;2023-04-30T06:16:24;10.90;;;7.93;;
44850;SDS011;30583;48.714;9.386;2023-04-30T06:18:49;9.98;;;8.20;;
44850;SDS011;30583;48.714;9.386;2023-04-30T06:21:15;11.38;;;7.97;;
44850;SDS011;30583;48.714;9.386;2023-04-30T06:23:40;11.10;;;8.63;;
44850;SDS011;30583;48.714;9.386;2023-04-30T06:26:06;10.50;;;7.72;;
44850;SDS011;30583;48.714;9.386;2023-04-30T06:28:31;10.35;;;7.80;;
44850;SDS011;30583;48.714;9.386;2023-04-30T06:30:57;9.93;;;7.97;;
44850;SDS011;30583;48.714;9.386;2023-04-30T06:33:23;10.80;;;8.35;;
44850;SDS011;30583;48.714;9.386;2023-04-30T06:35:48;10.15;;;7.60;;
44850;SDS011;30583;48.714;9.386;2023-04-30T06:38:19;8.60;;;6.85;;
44850;SDS011;30583;48.714;9.386;2023-04-30T06:40:45;11.38;;;7.43;;
44850;SDS011;30583;48.714;9.386;2023-04-30T06:43:10;10.57;;;7.68;;
44850;SDS011;30583;48.714;9.386;2023-04-30T06:45:36;9.65;;;7.63;;
44850;SDS011;30583;48.714;9.386;2023-04-30T06:48:02;9.68;;;7.47;;
44850;SDS011;30583;48.714;9.386;2023-04-30T06:50:28;10.48;;;7.55;;
44850;SDS011;30583;48.714;9.386;2023-04-30T06:52:54;8.88;;;6.95;;
44850;SDS011;30583;48.714;9.386;2023-04-30T06:55:19;11.15;;;7.72;;
44850;SDS011;30583;48.714;9.386;2023-04-30T06:57:45;9.30;;;7.18;;
44850;SDS011;30583;48.714;9.386;2023-04-30T07:00:11;12.88;;;7.82;;
44850;SDS011;30583;48.714;9.386;2023-04-30T07:02:39;9.38;;;7.00;;
44850;SDS011;30583;48.714;9.386;2023-04-30T07:05:05;10.35;;;7.53;;
44850;SDS011;30583;48.714;9.386;2023-04-30T07:07:30;10.32;;;7.30;;
44850;SDS011;30583;48.714;9.386;2023-04-30T07:09:56;9.80;;;6.57;;
44850;SDS011;30583;48.714;9.386;2023-04-30T07:12:22;9.65;;;7.28;;
44850;SDS011;30583;48.714;9.386;2023-04-30T07:14:47;7.95;;;6.20;;
44850;SDS011;30583;48.714;9.386;2023-04-30T07:17:13;8.95;;;6.75;;
44850;SDS011;30583;48.714;9.386;2023-04-30T07:19:38;10.15;;;7.05;;
44850;SDS011;30583;48.714;9.386;2023-04-30T07:22:04;8.82;;;6.07;;
44850;SDS011;30583;48.714;9.386;2023-04-30T07:24:30;9.32;;;6.57;;
44850;SDS011;30583;48.714;9.386;2023-04-30T07:26:55;10.82;;;6.70;;
44850;SDS011;30583;48.714;9.386;2023-04-30T07:29:22;8.30;;;6.68;;
44850;SDS011;30583;48.714;9.386;2023-04-30T07:31:48;7.22;;;5.53;;
44850;SDS011;30583;48.714;9.386;2023-04-30T07:34:14;9.18;;;6.00;;
44850;SDS011;30583;48.714;9.386;2023-04-30T07:36:39;10.45;;;6.80;;
44850;SDS011;30583;48.714;9.386;2023-04-30T07:39:05;7.85;;;5.60;;
44850;SDS011;30583;48.714;9.386;2023-04-30T07:41:31;6.65;;;4.45;;
44850;SDS011;30583;48.714;9.386;2023-04-30T07:43:57;5.60;;;3.92;;
44850;SDS011;30583;48.714;9.386;2023-04-30T07:46:23;6.43;;;4.35;;
44850;SDS011;30583;48.714;9.386;2023-04-30T07:48:49;7.72;;;4.15;;
44850;SDS011;30583;48.714;9.386;2023-04-30T07:51:15;7.18;;;4.95;;
44850;SDS011;30583;48.714;9.386;2023-04-30T07:53:41;7.05;;;4.78;;
44850;SDS011;30583;48.714;9.386;2023-04-30T07:56:06;9.20;;;5.30;;
44850;SDS011;30583;48.714;9.386;2023-04-30T07:58:32;9.20;;;5.40;;
44850;SDS011;30583;48.714;9.386;2023-04-30T08:00:58;10.13;;;6.07;;
44850;SDS011;30583;48.714;9.386;2023-04-30T08:03:23;9.43;;;5.82;;
44850;SDS011;30583;48.714;9.386;2023-04-30T08:05:49;11.20;;;6.63;;
44850;SDS011;30583;48.714;9.386;2023-04-30T08:08:14;10.30;;;5.95;;
44850;SDS011;30583;48.714;9.386;2023-04-30T08:10:40;8.25;;;5.90;;
44850;SDS011;30583;48.714;9.386;2023-04-30T08:13:06;7.82;;;5.60;;
44850;SDS011;30583;48.714;9.386;2023-04-30T08:15:34;7.07;;;5.63;;
44850;SDS011;30583;48.714;9.386;2023-04-30T08:18:01;7.05;;;4.55;;
44850;SDS011;30583;48.714;9.386;2023-04-30T08:20:27;6.85;;;5.20;;
44850;SDS011;30583;48.714;9.386;2023-04-30T08:22:53;7.32;;;5.45;;
44850;SDS011;30583;48.714;9.386;2023-04-30T08:25:19;8.38;;;4.45;;
44850;SDS011;30583;48.714;9.386;2023-04-30T08:27:44;6.53;;;4.55;;
44850;SDS011;30583;48.714;9.386;2023-04-30T08:30:10;7.22;;;5.80;;
44850;SDS011;30583;48.714;9.386;2023-04-30T08:32:36;9.10;;;5.22;;
44850;SDS011;30583;48.714;9.386;2023-04-30T08:35:03;6.45;;;5.32;;
44850;SDS011;30583;48.714;9.386;2023-04-30T08:37:29;7.07;;;4.53;;
44850;SDS011;30583;48.714;9.386;2023-04-30T08:39:54;6.97;;;4.43;;
44850;SDS011;30583;48.714;9.386;2023-04-30T08:42:20;7.03;;;5.20;;
44850;SDS011;30583;48.714;9.386;2023-04-30T08:44:50;6.93;;;4.88;;
44850;SDS011;30583;48.714;9.386;2023-04-30T08:47:16;5.68;;;4.30;;
44850;SDS011;30583;48.714;9.386;2023-04-30T08:49:42;5.15;;;3.80;;
44850;SDS011;30583;48.714;9.386;2023-04-30T08:52:09;6.35;;;3.92;;
44850;SDS011;30583;48.714;9.386;2023-04-30T08:54:35;6.90;;;4.32;;
44850;SDS011;30583;48.714;9.386;2023-04-30T08:57:01;6.35;;;3.58;;
44850;SDS011;30583;48.714;9.386;2023-04-30T08:59:27;6.60;;;4.03;;
44850;SDS011;30583;48.714;9.386;2023-04-30T09:01:53;4.95;;;4.20;;
44850;SDS011;30583;48.714;9.386;2023-04-30T09:04:18;5.75;;;4.55;;
44850;SDS011;30583;48.714;9.386;2023-04-30T09:06:44;5.93;;;3.63;;
44850;SDS011;30583;48.714;9.386;2023-04-30T09:09:10;5.22;;;4.00;;
44850;SDS011;30583;48.714;9.386;2023-04-30T09:11:37;7.32;;;4.55;;
44850;SDS011;30583;48.714;9.386;2023-04-30T09:14:03;5.75;;;4.45;;
44850;SDS011;30583;48.714;9.386;2023-04-30T09:16:29;5.32;;;3.65;;
44850;SDS011;30583;48.714;9.386;2023-04-30T09:19:23;6.85;;;3.97;;
44850;SDS011;30583;48.714;9.386;2023-04-30T09:21:50;6.90;;;3.88;;
44850;SDS011;30583;48.714;9.386;2023-04-30T09:24:15;5.07;;;3.78;;
44850;SDS011;30583;48.714;9.386;2023-04-30T09:26:42;5.15;;;3.92;;
44850;SDS011;30583;48.714;9.386;2023-04-30T09:29:07;7.90;;;3.75;;
44850;SDS011;30583;48.714;9.386;2023-04-30T09:31:34;6.05;;;3.30;;
44850;SDS011;30583;48.714;9.386;2023-04-30T09:34:01;6.07;;;3.90;;
44850;SDS011;30583;48.714;9.386;2023-04-30T09:36:27;7.70;;;3.42;;
44850;SDS011;30583;48.714;9.386;2023-04-30T09:38:54;5.13;;;3.50;;
44850;SDS011;30583;48.714;9.386;2023-04-30T09:41:28;4.57;;;3.30;;
44850;SDS011;30583;48.714;9.386;2023-04-30T09:43:54;5.28;;;3.20;;
44850;SDS011;30583;48.714;9.386;2023-04-30T09:46:21;6.13;;;3.58;;
44850;SDS011;30583;48.714;9.386;2023-04-30T09:49:01;4.22;;;2.95;;
44850;SDS011;30583;48.714;9.386;2023-04-30T09:51:28;4.75;;;2.75;;
44850;SDS011;30583;48.714;9.386;2023-04-30T09:53:53;4.18;;;2.85;;
44850;SDS011;30583;48.714;9.386;2023-04-30T09:56:20;3.45;;;2.47;;
44850;SDS011;30583;48.714;9.386;2023-04-30T09:58:51;4.43;;;2.72;;
44850;SDS011;30583;48.714;9.386;2023-04-30T10:01:22;4.15;;;2.38;;
44850;SDS011;30583;48.714;9.386;2023-04-30T10:03:51;4.57;;;3.15;;
44850;SDS011;30583;48.714;9.386;2023-04-30T10:06:17;4.30;;;3.10;;
44850;SDS011;30583;48.714;9.386;2023-04-30T10:08:50;3.58;;;2.65;;
44850;SDS011;30583;48.714;9.386;2023-04-30T10:11:20;4.78;;;2.05;;
44850;SDS011;30583;48.714;9.386;2023-04-30T10:13:56;4.80;;;2.15;;
44850;SDS011;30583;48.714;9.386;2023-04-30T10:16:45;3.30;;;2.20;;
44850;SDS011;30583;48.714;9.386;2023-04-30T10:19:19;3.83;;;2.30;;
44850;SDS011;30583;48.714;9.386;2023-04-30T10:21:47;5.30;;;2.60;;
44850;SDS011;30583;48.714;9.386;2023-04-30T10:24:14;3.58;;;2.33;;
44850;SDS011;30583;48.714;9.386;2023-04-30T10:26:42;4.25;;;2.60;;
44850;SDS011;30583;48.714;9.386;2023-04-30T10:29:08;4.65;;;2.88;;
44850;SDS011;30583;48.714;9.386;2023-04-30T10:31:34;4.65;;;2.22;;
44850;SDS011;30583;48.714;9.386;2023-04-30T10:36:53;3.83;;;2.17;;
44850;SDS011;30583;48.714;9.386;2023-04-30T10:39:22;4.65;;;2.78;;
44850;SDS011;30583;48.714;9.386;2023-04-30T10:41:59;4.68;;;2.97;;
44850;SDS011;30583;48.714;9.386;2023-04-30T10:44:26;5.18;;;2.60;;
44850;SDS011;30583;48.714;9.386;2023-04-30T10:46:58;4.53;;;2.60;;
44850;SDS011;30583;48.714;9.386;2023-04-30T10:49:25;2.97;;;1.88;;
44850;SDS011;30583;48.714;9.386;2023-04-30T10:51:51;3.13;;;1.98;;
44850;SDS011;30583;48.714;9.386;2023-04-30T10:56:52;3.58;;;2.60;;
44850;SDS011;30583;48.714;9.386;2023-04-30T10:59:20;4.35;;;2.90;;
44850;SDS011;30583;48.714;9.386;2023-04-30T11:01:56;5.18;;;3.08;;
44850;SDS011;30583;48.714;9.386;2023-04-30T11:04:23;3.70;;;2.72;;
44850;SDS011;30583;48.714;9.386;2023-04-30T11:09:18;4.78;;;2.80;;
44850;SDS011;30583;48.714;9.386;2023-04-30T11:11:44;4.28;;;2.83;;
44850;SDS011;30583;48.714;9.386;2023-04-30T11:14:11;3.80;;;2.60;;
44850;SDS011;30583;48.714;9.386;2023-04-30T11:16:37;5.63;;;2.80;;
44850;SDS011;30583;48.714;9.386;2023-04-30T11:19:09;4.07;;;2.83;;
44850;SDS011;30583;48.714;9.386;2023-04-30T11:27:27;4.80;;;3.15;;
44850;SDS011;30583;48.714;9.386;2023-04-30T11:29:55;5.10;;;2.58;;
44850;SDS011;30583;48.714;9.386;2023-04-30T11:32:22;4.10;;;3.10;;
44850;SDS011;30583;48.714;9.386;2023-04-30T11:34:50;3.85;;;2.55;;
44850;SDS011;30583;48.714;9.386;2023-04-30T11:37:18;3.53;;;2.50;;
44850;SDS011;30583;48.714;9.386;2023-04-30T11:39:45;4.28;;;2.45;;
44850;SDS011;30583;48.714;9.386;2023-04-30T11:42:19;3.72;;;2.75;;
44850;SDS011;30583;48.714;9.386;2023-04-30T11:44:45;4.70;;;2.88;;
44850;SDS011;30583;48.714;9.386;2023-04-30T11:47:14;3.95;;;2.97;;
44850;SDS011;30583;48.714;9.386;2023-04-30T11:49:39;4.47;;;2.60;;
44850;SDS011;30583;48.714;9.386;2023-04-30T11:52:06;4.93;;;3.00;;
44850;SDS011;30583;48.714;9.386;2023-04-30T11:54:36;4.97;;;2.65;;
44850;SDS011;30583;48.714;9.386;2023-04-30T11:57:02;4.35;;;2.22;;
44850;SDS011;30583;48.714;9.386;2023-04-30T11:59:29;3.35;;;2.55;;
44850;SDS011;30583;48.714;9.386;2023-04-30T12:02:05;4.43;;;2.50;;
44850;SDS011;30583;48.714;9.386;2023-04-30T12:04:31;3.45;;;2.42;;
44850;SDS011;30583;48.714;9.386;2023-04-30T12:06:58;3.63;;;2.38;;
44850;SDS011;30583;48.714;9.386;2023-04-30T12:09:24;3.78;;;2.80;;
44850;SDS011;30583;48.714;9.386;2023-04-30T12:11:50;3.88;;;2.47;;
44850;SDS011;30583;48.714;9.386;2023-04-30T12:14:15;5.72;;;2.95;;
44850;SDS011;30583;48.714;9.386;2023-04-30T12:16:45;6.13;;;3.08;;
44850;SDS011;30583;48.714;9.386;2023-04-30T12:19:15;5.03;;;3.40;;
44850;SDS011;30583;48.714;9.386;2023-04-30T12:21:42;4.90;;;2.78;;
44850;SDS011;30583;48.714;9.386;2023-04-30T12:24:13;3.88;;;2.60;;
44850;SDS011;30583;48.714;9.386;2023-04-30T12:26:39;3.70;;;2.67;;
44850;SDS011;30583;48.714;9.386;2023-04-30T12:29:16;4.65;;;2.92;;
44850;SDS011;30583;48.714;9.386;2023-04-30T12:31:42;6.43;;;3.22;;
44850;SDS011;30583;48.714;9.386;2023-04-30T12:34:10;4.07;;;2.70;;
44850;SDS011;30583;48.714;9.386;2023-04-30T12:36:38;3.25;;;2.50;;
44850;SDS011;30583;48.714;9.386;2023-04-30T12:39:07;5.97;;;2.58;;
44850;SDS011;30583;48.714;9.386;2023-04-30T12:41:40;4.78;;;3.17;;
44850;SDS011;30583;48.714;9.386;2023-04-30T12:46:46;5.50;;;2.72;;
44850;SDS011;30583;48.714;9.386;2023-04-30T12:49:21;4.78;;;2.58;;
44850;SDS011;30583;48.714;9.386;2023-04-30T12:51:51;5.05;;;2.95;;
44850;SDS011;30583;48.714;9.386;2023-04-30T12:54:31;7.45;;;3.30;;
44850;SDS011;30583;48.714;9.386;2023-04-30T12:57:01;5.70;;;3.30;;
44850;SDS011;30583;48.714;9.386;2023-04-30T12:59:38;5.15;;;3.60;;
44850;SDS011;30583;48.714;9.386;2023-04-30T13:02:22;4.53;;;2.97;;
44850;SDS011;30583;48.714;9.386;2023-04-30T13:04:49;4.57;;;2.90;;
44850;SDS011;30583;48.714;9.386;2023-04-30T13:07:15;5.22;;;3.67;;
44850;SDS011;30583;48.714;9.386;2023-04-30T13:09:41;4.57;;;3.00;;
44850;SDS011;30583;48.714;9.386;2023-04-30T13:12:06;5.93;;;3.28;;
44850;SDS011;30583;48.714;9.386;2023-04-30T13:14:32;4.68;;;3.13;;
44850;SDS011;30583;48.714;9.386;2023-04-30T13:16:58;4.05;;;2.85;;
44850;SDS011;30583;48.714;9.386;2023-04-30T13:19:24;4.57;;;2.60;;
44850;SDS011;30583;48.714;9.386;2023-04-30T13:21:50;3.95;;;2.70;;
44850;SDS011;30583;48.714;9.386;2023-04-30T13:24:16;4.68;;;3.17;;
44850;SDS011;30583;48.714;9.386;2023-04-30T13:26:42;4.47;;;2.97;;
44850;SDS011;30583;48.714;9.386;2023-04-30T13:29:08;3.38;;;2.60;;
44850;SDS011;30583;48.714;9.386;2023-04-30T13:31:35;3.63;;;2.30;;
44850;SDS011;30583;48.714;9.386;2023-04-30T13:34:01;3.88;;;2.20;;
44850;SDS011;30583;48.714;9.386;2023-04-30T13:36:26;5.22;;;2.38;;
44850;SDS011;30583;48.714;9.386;2023-04-30T13:38:52;5.60;;;2.80;;
44850;SDS011;30583;48.714;9.386;2023-04-30T13:41:18;4.60;;;2.42;;
44850;SDS011;30583;48.714;9.386;2023-04-30T13:43:46;4.32;;;2.72;;
44850;SDS011;30583;48.714;9.386;2023-04-30T13:46:12;5.22;;;2.83;;
44850;SDS011;30583;48.714;9.386;2023-04-30T13:48:38;4.72;;;3.03;;
44850;SDS011;30583;48.714;9.386;2023-04-30T13:51:04;4.18;;;2.65;;
44850;SDS011;30583;48.714;9.386;2023-04-30T13:53:30;5.15;;;2.63;;
44850;SDS011;30583;48.714;9.386;2023-04-30T13:55:56;4.45;;;2.72;;
44850;SDS011;30583;48.714;9.386;2023-04-30T13:58:23;6.35;;;2.92;;
44850;SDS011;30583;48.714;9.386;2023-04-30T14:00:49;3.83;;;2.42;;
44850;SDS011;30583;48.714;9.386;2023-04-30T14:03:15;5.65;;;3.28;;
44850;SDS011;30583;48.714;9.386;2023-04-30T14:05:42;7.53;;;2.65;;
44850;SDS011;30583;48.714;9.386;2023-04-30T14:08:07;5.28;;;2.30;;
44850;SDS011;30583;48.714;9.386;2023-04-30T14:10:33;4.03;;;2.72;;
44850;SDS011;30583;48.714;9.386;2023-04-30T14:12:58;5.00;;;2.47;;
44850;SDS011;30583;48.714;9.386;2023-04-30T14:15:24;4.32;;;2.30;;
44850;SDS011;30583;48.714;9.386;2023-04-30T14:17:50;4.82;;;2.53;;
44850;SDS011;30583;48.714;9.386;2023-04-30T14:20:16;4.05;;;2.83;;
44850;SDS011;30583;48.714;9.386;2023-04-30T14:22:42;3.80;;;2.55;;
44850;SDS011;30583;48.714;9.386;2023-04-30T14:25:08;5.45;;;3.17;;
44850;SDS011;30583;48.714;9.386;2023-04-30T14:27:34;4.60;;;2.70;;
44850;SDS011;30583;48.714;9.386;2023-04-30T14:30:00;4.05;;;2.60;;
44850;SDS011;30583;48.714;9.386;2023-04-30T14:32:26;4.47;;;2.60;;
44850;SDS011;30583;48.714;9.386;2023-04-30T14:34:52;3.58;;;2.63;;
44850;SDS011;30583;48.714;9.386;2023-04-30T14:37:18;3.95;;;2.45;;
44850;SDS011;30583;48.714;9.386;2023-04-30T14:39:43;8.95;;;4.10;;
44850;SDS011;30583;48.714;9.386;2023-04-30T14:42:10;6.45;;;3.28;;
44850;SDS011;30583;48.714;9.386;2023-04-30T14:44:36;5.80;;;3.42;;
44850;SDS011;30583;48.714;9.386;2023-04-30T14:47:02;4.25;;;3.15;;
44850;SDS011;30583;48.714;9.386;2023-04-30T14:49:28;4.18;;;2.85;;
44850;SDS011;30583;48.714;9.386;2023-04-30T14:51:54;3.40;;;2.50;;
44850;SDS011;30583;48.714;9.386;2023-04-30T14:54:20;5.22;;;2.80;;
44850;SDS011;30583;48.714;9.386;2023-04-30T14:56:46;3.88;;;2.83;;
44850;SDS011;30583;48.714;9.386;2023-04-30T14:59:12;4.28;;;2.65;;
44850;SDS011;30583;48.714;9.386;2023-04-30T15:01:38;5.10;;;2.50;;
44850;SDS011;30583;48.714;9.386;2023-04-30T15:04:04;4.30;;;2.35;;
44850;SDS011;30583;48.714;9.386;2023-04-30T15:06:31;4.55;;;2.25;;